createdAt,value
2023-04-16T00:01:01.029Z,20.00
2023-04-16T00:02:04.137Z,18.00
2023-04-16T00:03:07.322Z,18.00
2023-04-16T00:04:10.568Z,18.75
2023-04-16T00:05:13.546Z,19.00
2023-04-16T00:06:16.424Z,18.50
2023-04-16T00:07:19.264Z,16.25
2023-04-16T00:08:22.094Z,17.00
2023-04-16T00:09:24.964Z,18.75
2023-04-16T00:10:27.868Z,18.00
2023-04-16T00:11:30.695Z,16.25
2023-04-16T00:12:33.572Z,17.75
2023-04-16T00:13:36.854Z,18.00
2023-04-16T00:14:39.734Z,19.25
2023-04-16T00:15:42.622Z,16.25
2023-04-16T00:16:45.577Z,16.00
2023-04-16T00:17:48.479Z,17.00
2023-04-16T00:18:51.439Z,18.00
2023-04-16T00:19:54.469Z,19.00
2023-04-16T00:20:57.363Z,19.50
2023-04-16T00:22:00.175Z,19.50
2023-04-16T00:23:03.020Z,17.00
2023-04-16T00:24:06.082Z,19.00
2023-04-16T00:25:09.190Z,17.00
2023-04-16T00:26:12.427Z,16.75
2023-04-16T00:27:15.253Z,17.50
2023-04-16T00:28:18.205Z,17.00
2023-04-16T00:29:21.113Z,17.50
2023-04-16T00:30:24.187Z,16.00
2023-04-16T00:31:31.424Z,16.00
2023-04-16T00:32:34.351Z,17.00
2023-04-16T00:33:37.274Z,16.00
2023-04-16T00:34:40.092Z,17.00
2023-04-16T00:35:42.977Z,18.00
2023-04-16T00:36:45.800Z,18.00
2023-04-16T00:37:48.661Z,16.00
2023-04-16T00:38:52.761Z,15.75
2023-04-16T00:39:55.618Z,16.25
2023-04-16T00:41:01.358Z,16.00
2023-04-16T00:42:04.346Z,17.00
2023-04-16T00:43:07.416Z,17.75
2023-04-16T00:44:10.371Z,18.00
2023-04-16T00:45:13.277Z,17.50
2023-04-16T00:46:17.885Z,17.00
2023-04-16T00:47:21.796Z,17.50
2023-04-16T00:48:25.145Z,16.00
2023-04-16T00:49:28.359Z,15.00
2023-04-16T00:50:31.314Z,14.50
2023-04-16T00:51:34.451Z,14.00
2023-04-16T00:52:37.490Z,14.25
2023-04-16T00:53:40.486Z,14.00
2023-04-16T00:54:43.480Z,14.00
2023-04-16T00:55:47.239Z,15.00
2023-04-16T00:56:50.415Z,16.00
2023-04-16T00:57:53.236Z,15.75
2023-04-16T00:58:57.684Z,15.00
2023-04-16T01:00:00.586Z,15.00
2023-04-16T01:01:04.254Z,14.00
2023-04-16T01:02:07.268Z,12.00
2023-04-16T01:04:13.689Z,9.00
2023-04-16T01:05:16.805Z,8.00
2023-04-16T01:06:20.110Z,9.00
2023-04-16T01:07:23.060Z,9.00
2023-04-16T01:08:26.334Z,11.00
2023-04-16T01:09:29.209Z,12.00
2023-04-16T01:10:32.209Z,13.00
2023-04-16T01:11:35.076Z,12.00
2023-04-16T01:12:37.868Z,13.00
2023-04-16T01:13:40.825Z,13.00
2023-04-16T01:14:43.756Z,12.00
2023-04-16T01:15:46.655Z,12.25
2023-04-16T01:16:49.555Z,14.00
2023-04-16T01:17:52.449Z,13.00
2023-04-16T01:18:55.756Z,13.00
2023-04-16T01:20:02.076Z,13.00
2023-04-16T01:21:05.940Z,13.00
2023-04-16T01:22:08.788Z,13.00
2023-04-16T01:23:12.795Z,13.00
2023-04-16T01:24:15.632Z,12.00
2023-04-16T01:25:18.529Z,10.00
2023-04-16T01:26:21.353Z,9.00
2023-04-16T01:27:24.213Z,9.00
2023-04-16T01:28:27.232Z,9.00
2023-04-16T01:29:30.105Z,9.00
2023-04-16T01:30:33.052Z,8.75
2023-04-16T01:31:35.925Z,9.25
2023-04-16T01:32:38.977Z,11.00
2023-04-16T01:33:41.968Z,11.00
2023-04-16T01:34:44.844Z,13.00
2023-04-16T01:35:47.677Z,14.75
2023-04-16T01:36:50.495Z,13.00
2023-04-16T01:37:54.950Z,14.00
2023-04-16T01:38:57.986Z,14.00
2023-04-16T01:40:00.997Z,13.00
2023-04-16T01:41:03.865Z,12.50
2023-04-16T01:42:06.815Z,13.50
2023-04-16T01:43:09.780Z,15.00
2023-04-16T01:44:12.730Z,14.00
2023-04-16T01:45:15.556Z,14.00
2023-04-16T01:46:33.635Z,14.00
2023-04-16T01:47:36.531Z,14.00
2023-04-16T01:48:39.379Z,15.25
2023-04-16T01:49:42.479Z,15.00
2023-04-16T01:50:45.402Z,16.00
2023-04-16T01:51:48.413Z,15.00
2023-04-16T01:52:51.270Z,13.25
2023-04-16T01:53:54.323Z,14.00
2023-04-16T01:54:57.302Z,12.00
2023-04-16T01:56:00.155Z,13.50
2023-04-16T01:57:03.177Z,16.00
2023-04-16T01:58:06.035Z,15.00
2023-04-16T01:59:09.219Z,15.75
2023-04-16T02:00:12.655Z,16.75
2023-04-16T02:01:15.750Z,15.00
2023-04-16T02:02:18.911Z,16.00
2023-04-16T02:03:21.978Z,16.00
2023-04-16T02:04:24.873Z,15.00
2023-04-16T02:05:27.744Z,15.50
2023-04-16T02:06:30.620Z,15.00
2023-04-16T02:07:33.474Z,13.50
2023-04-16T02:08:37.362Z,15.00
2023-04-16T02:09:41.578Z,15.00
2023-04-16T02:10:46.832Z,13.50
2023-04-16T02:11:49.730Z,14.50
2023-04-16T02:12:52.571Z,16.00
2023-04-16T02:13:55.440Z,14.25
2023-04-16T02:14:58.253Z,15.00
2023-04-16T02:16:01.225Z,15.00
2023-04-16T02:17:04.257Z,14.25
2023-04-16T02:18:07.145Z,14.25
2023-04-16T02:19:10.251Z,17.75
2023-04-16T02:20:13.655Z,16.00
2023-04-16T02:21:16.530Z,16.00
2023-04-16T02:22:19.389Z,17.75
2023-04-16T02:23:22.234Z,16.00
2023-04-16T02:24:25.048Z,15.00
2023-04-16T02:25:28.052Z,16.25
2023-04-16T02:26:31.054Z,16.50
2023-04-16T02:27:33.897Z,18.00
2023-04-16T02:28:36.710Z,17.00
2023-04-16T02:29:39.595Z,17.00
2023-04-16T02:30:43.088Z,14.25
2023-04-16T02:31:46.086Z,15.00
2023-04-16T02:32:49.072Z,13.50
2023-04-16T02:33:52.069Z,15.00
2023-04-16T02:34:54.959Z,15.25
2023-04-16T02:35:57.773Z,15.25
2023-04-16T02:37:00.678Z,15.75
2023-04-16T02:38:04.662Z,13.50
2023-04-16T02:39:07.839Z,15.00
2023-04-16T02:40:11.872Z,16.00
2023-04-16T02:41:14.736Z,16.00
2023-04-16T02:42:17.817Z,16.00
2023-04-16T02:43:20.710Z,15.00
2023-04-16T02:44:23.628Z,15.00
2023-04-16T02:45:26.683Z,17.00
2023-04-16T02:46:30.294Z,16.00
2023-04-16T02:47:33.693Z,14.00
2023-04-16T02:48:36.911Z,15.00
2023-04-16T02:49:39.755Z,16.00
2023-04-16T02:50:42.600Z,15.00
2023-04-16T02:51:45.509Z,15.00
2023-04-16T02:52:48.424Z,15.00
2023-04-16T02:53:51.308Z,15.00
2023-04-16T02:54:54.180Z,16.00
2023-04-16T02:55:57.371Z,15.00
2023-04-16T02:57:00.200Z,15.00
2023-04-16T02:58:03.253Z,15.00
2023-04-16T02:59:06.471Z,15.00
2023-04-16T03:00:10.071Z,18.00
2023-04-16T03:01:13.089Z,15.25
2023-04-16T03:02:15.990Z,18.00
2023-04-16T03:03:19.360Z,17.00
2023-04-16T03:04:22.514Z,18.00
2023-04-16T03:05:25.396Z,17.00
2023-04-16T03:06:28.365Z,17.00
2023-04-16T03:07:31.461Z,17.00
2023-04-16T03:08:34.315Z,18.00
2023-04-16T03:09:37.171Z,18.00
2023-04-16T03:10:40.045Z,17.00
2023-04-16T03:11:42.863Z,17.75
2023-04-16T03:12:45.762Z,18.50
2023-04-16T03:13:48.817Z,18.00
2023-04-16T03:14:54.572Z,19.00
2023-04-16T03:15:57.517Z,17.00
2023-04-16T03:17:00.398Z,17.75
2023-04-16T03:18:03.676Z,18.00
2023-04-16T03:19:06.961Z,18.00
2023-04-16T03:20:11.299Z,18.00
2023-04-16T03:21:14.125Z,18.00
2023-04-16T03:22:16.990Z,16.50
2023-04-16T03:23:19.975Z,16.00
2023-04-16T03:24:23.010Z,18.00
2023-04-16T03:25:25.894Z,18.00
2023-04-16T03:26:28.711Z,18.00
2023-04-16T03:27:31.666Z,19.00
2023-04-16T03:28:34.597Z,18.00
2023-04-16T03:29:40.489Z,18.50
2023-04-16T03:30:43.467Z,18.00
2023-04-16T03:31:46.293Z,18.00
2023-04-16T03:32:50.719Z,16.25
2023-04-16T03:33:54.014Z,17.25
2023-04-16T03:34:56.918Z,16.00
2023-04-16T03:36:00.404Z,18.00
2023-04-16T03:37:03.240Z,16.75
2023-04-16T03:38:06.121Z,17.00
2023-04-16T03:39:09.131Z,18.00
2023-04-16T03:40:12.564Z,18.00
2023-04-16T03:41:15.504Z,17.00
2023-04-16T03:42:18.473Z,18.00
2023-04-16T03:43:21.340Z,18.00
2023-04-16T03:44:24.276Z,18.00
2023-04-16T03:45:27.116Z,18.00
2023-04-16T03:46:30.172Z,16.00
2023-04-16T03:47:33.059Z,18.00
2023-04-16T03:48:35.938Z,16.00
2023-04-16T03:49:38.772Z,18.00
2023-04-16T03:50:41.666Z,18.00
2023-04-16T03:51:44.535Z,18.50
2023-04-16T03:52:48.249Z,18.00
2023-04-16T03:53:51.128Z,17.50
2023-04-16T03:54:54.079Z,18.00
2023-04-16T03:55:56.970Z,18.00
2023-04-16T03:56:59.963Z,18.00
2023-04-16T03:58:04.545Z,17.00
2023-04-16T03:59:07.480Z,17.25
2023-04-16T04:00:10.682Z,18.00
2023-04-16T04:01:13.531Z,18.00
2023-04-16T04:02:16.474Z,17.25
2023-04-16T04:03:20.022Z,16.25
2023-04-16T04:04:23.254Z,17.75
2023-04-16T04:05:26.254Z,17.50
2023-04-16T04:06:29.074Z,16.00
2023-04-16T04:07:31.923Z,15.00
2023-04-16T04:08:37.008Z,15.50
2023-04-16T04:09:39.815Z,17.50
2023-04-16T04:10:42.610Z,18.00
2023-04-16T04:11:45.453Z,17.00
2023-04-16T04:12:48.267Z,17.00
2023-04-16T04:13:51.189Z,18.00
2023-04-16T04:14:54.237Z,17.50
2023-04-16T04:15:57.167Z,16.00
2023-04-16T04:17:00.003Z,16.00
2023-04-16T04:18:02.905Z,15.00
2023-04-16T04:19:05.790Z,16.00
2023-04-16T04:20:09.059Z,17.00
2023-04-16T04:21:12.163Z,17.50
2023-04-16T04:22:15.025Z,16.75
2023-04-16T04:23:17.894Z,16.75
2023-04-16T04:24:20.710Z,16.25
2023-04-16T04:25:23.663Z,17.00
2023-04-16T04:26:26.610Z,16.00
2023-04-16T04:27:29.497Z,14.00
2023-04-16T04:28:35.697Z,16.50
2023-04-16T04:29:38.633Z,17.50
2023-04-16T04:30:41.490Z,16.00
2023-04-16T04:31:44.360Z,17.50
2023-04-16T04:32:47.397Z,16.75
2023-04-16T04:33:50.262Z,18.00
2023-04-16T04:34:53.195Z,17.00
2023-04-16T04:35:57.038Z,17.00
2023-04-16T04:37:00.332Z,18.00
2023-04-16T04:38:04.180Z,18.00
2023-04-16T04:39:07.209Z,17.00
2023-04-16T04:40:10.965Z,17.50
2023-04-16T04:41:13.805Z,17.00
2023-04-16T04:42:19.462Z,18.00
2023-04-16T04:43:22.344Z,17.00
2023-04-16T04:44:25.165Z,18.25
2023-04-16T04:45:30.362Z,17.25
2023-04-16T04:46:34.747Z,18.00
2023-04-16T04:47:37.585Z,19.00
2023-04-16T04:48:40.479Z,18.00
2023-04-16T04:49:43.756Z,17.00
2023-04-16T04:50:47.509Z,18.00
2023-04-16T04:51:50.692Z,16.00
2023-04-16T04:52:53.524Z,17.00
2023-04-16T04:53:56.357Z,19.00
2023-04-16T04:54:59.197Z,19.00
2023-04-16T04:56:11.590Z,19.00
2023-04-16T04:57:15.482Z,18.00
2023-04-16T04:58:18.339Z,18.00
2023-04-16T04:59:22.254Z,18.00
2023-04-16T05:00:25.096Z,18.00
2023-04-16T05:01:27.971Z,18.00
2023-04-16T05:02:30.975Z,18.00
2023-04-16T05:03:34.049Z,18.00
2023-04-16T05:04:36.991Z,18.00
2023-04-16T05:05:42.911Z,18.00
2023-04-16T05:06:45.735Z,18.00
2023-04-16T05:07:48.578Z,17.50
2023-04-16T05:08:51.516Z,18.00
2023-04-16T05:09:54.773Z,18.00
2023-04-16T05:10:57.583Z,18.00
2023-04-16T05:12:00.565Z,19.25
2023-04-16T05:13:03.667Z,18.00
2023-04-16T05:14:06.566Z,18.00
2023-04-16T05:15:10.117Z,19.00
2023-04-16T05:16:13.007Z,19.50
2023-04-16T05:17:16.012Z,18.00
2023-04-16T05:18:18.831Z,18.00
2023-04-16T05:19:21.796Z,18.00
2023-04-16T05:20:28.095Z,18.00
2023-04-16T05:21:31.022Z,19.00
2023-04-16T05:22:34.162Z,17.00
2023-04-16T05:23:36.996Z,18.00
2023-04-16T05:24:39.899Z,19.00
2023-04-16T05:25:42.723Z,19.50
2023-04-16T05:26:45.590Z,19.00
2023-04-16T05:27:48.473Z,19.75
2023-04-16T05:28:51.364Z,19.00
2023-04-16T05:29:54.200Z,20.00
2023-04-16T05:30:57.150Z,18.25
2023-04-16T05:32:00.064Z,18.25
2023-04-16T05:33:02.947Z,19.00
2023-04-16T05:34:05.738Z,18.50
2023-04-16T05:35:08.936Z,20.00
2023-04-16T05:36:11.926Z,19.00
2023-04-16T05:37:14.784Z,18.00
2023-04-16T05:38:17.627Z,18.00
2023-04-16T05:39:21.165Z,18.00
2023-04-16T05:40:24.008Z,18.25
2023-04-16T05:41:27.054Z,17.75
2023-04-16T05:42:29.903Z,18.00
2023-04-16T05:43:33.040Z,18.50
2023-04-16T05:44:35.889Z,18.50
2023-04-16T05:45:42.272Z,16.75
2023-04-16T05:46:45.139Z,16.00
2023-04-16T05:47:48.333Z,17.75
2023-04-16T05:48:52.327Z,18.25
2023-04-16T05:49:55.147Z,18.50
2023-04-16T05:50:57.965Z,18.00
2023-04-16T05:52:00.993Z,19.00
2023-04-16T05:53:07.160Z,19.00
2023-04-16T05:54:10.023Z,19.00
2023-04-16T05:55:12.968Z,19.00
2023-04-16T05:56:15.788Z,19.00
2023-04-16T05:57:18.616Z,18.00
2023-04-16T05:58:21.513Z,18.00
2023-04-16T05:59:24.442Z,19.00
2023-04-16T06:00:28.470Z,18.75
2023-04-16T06:01:32.813Z,18.00
2023-04-16T06:02:37.279Z,17.00
2023-04-16T06:03:40.430Z,18.25
2023-04-16T06:04:43.328Z,18.00
2023-04-16T06:05:46.402Z,17.00
2023-04-16T06:06:49.334Z,17.25
2023-04-16T06:07:52.195Z,18.00
2023-04-16T06:08:55.040Z,18.50
2023-04-16T06:09:58.002Z,18.00
2023-04-16T06:11:00.904Z,19.00
2023-04-16T06:12:03.768Z,19.75
2023-04-16T06:13:06.791Z,20.00
2023-04-16T06:14:09.800Z,19.75
2023-04-16T06:15:12.897Z,20.00
2023-04-16T06:16:15.749Z,18.50
2023-04-16T06:17:18.666Z,18.00
2023-04-16T06:18:21.479Z,18.75
2023-04-16T06:19:24.410Z,19.50
2023-04-16T06:20:27.374Z,18.50
2023-04-16T06:21:30.478Z,18.00
2023-04-16T06:22:33.377Z,18.00
2023-04-16T06:23:36.244Z,19.00
2023-04-16T06:24:39.205Z,19.00
2023-04-16T06:25:42.054Z,23.50
2023-04-16T06:26:44.964Z,23.75
2023-04-16T06:27:47.820Z,26.00
2023-04-16T06:28:51.518Z,26.00
2023-04-16T06:29:54.421Z,24.00
2023-04-16T06:30:57.451Z,22.00
2023-04-16T06:32:00.424Z,20.00
2023-04-16T06:33:03.343Z,22.50
2023-04-16T06:34:06.235Z,24.00
2023-04-16T06:35:09.525Z,24.00
2023-04-16T06:36:12.946Z,24.00
2023-04-16T06:37:16.277Z,24.00
2023-04-16T06:38:19.928Z,23.00
2023-04-16T06:39:23.155Z,22.75
2023-04-16T06:40:26.117Z,22.00
2023-04-16T06:41:29.944Z,21.00
2023-04-16T06:42:32.868Z,20.00
2023-04-16T06:43:36.112Z,20.00
2023-04-16T06:44:39.215Z,20.00
2023-04-16T06:45:43.110Z,21.00
2023-04-16T06:46:45.984Z,19.00
2023-04-16T06:47:49.364Z,19.25
2023-04-16T06:48:52.212Z,20.00
2023-04-16T06:49:55.067Z,19.00
2023-04-16T06:50:58.068Z,17.00
2023-04-16T06:52:00.965Z,19.75
2023-04-16T06:53:03.810Z,20.50
2023-04-16T06:54:06.719Z,20.00
2023-04-16T06:55:11.131Z,19.00
2023-04-16T06:56:14.032Z,20.00
2023-04-16T06:57:17.573Z,19.00
2023-04-16T06:58:20.401Z,21.00
2023-04-16T06:59:23.258Z,21.00
2023-04-16T07:00:26.123Z,20.00
2023-04-16T07:01:29.982Z,20.75
2023-04-16T07:02:32.997Z,24.00
2023-04-16T07:03:36.169Z,22.00
2023-04-16T07:04:39.110Z,22.25
2023-04-16T07:05:41.939Z,23.00
2023-04-16T07:06:44.822Z,23.00
2023-04-16T07:07:47.684Z,22.50
2023-04-16T07:08:50.684Z,23.00
2023-04-16T07:09:53.664Z,19.75
2023-04-16T07:10:56.599Z,17.25
2023-04-16T07:11:59.686Z,17.25
2023-04-16T07:13:03.007Z,17.00
2023-04-16T07:14:06.566Z,19.00
2023-04-16T07:15:11.908Z,19.00
2023-04-16T07:16:14.822Z,19.00
2023-04-16T07:17:17.815Z,19.00
2023-04-16T07:18:20.892Z,18.00
2023-04-16T07:19:24.055Z,18.00
2023-04-16T07:20:26.995Z,17.00
2023-04-16T07:21:29.861Z,17.00
2023-04-16T07:22:32.696Z,20.00
2023-04-16T07:23:35.813Z,20.00
2023-04-16T07:24:38.709Z,20.00
2023-04-16T07:25:43.139Z,19.00
2023-04-16T07:26:45.994Z,19.00
2023-04-16T07:27:48.868Z,20.25
2023-04-16T07:28:51.746Z,20.75
2023-04-16T07:29:56.036Z,19.00
2023-04-16T07:30:59.058Z,20.00
2023-04-16T07:32:02.062Z,19.50
2023-04-16T07:33:05.546Z,21.75
2023-04-16T07:34:08.500Z,19.75
2023-04-16T07:35:11.477Z,19.00
2023-04-16T07:36:14.437Z,19.00
2023-04-16T07:37:17.300Z,20.00
2023-04-16T07:38:20.173Z,19.00
2023-04-16T07:39:22.988Z,18.00
2023-04-16T07:40:26.045Z,17.00
2023-04-16T07:41:30.874Z,18.00
2023-04-16T07:42:33.736Z,16.25
2023-04-16T07:43:36.858Z,19.00
2023-04-16T07:44:40.713Z,21.75
2023-04-16T07:45:43.668Z,21.00
2023-04-16T07:46:47.715Z,21.00
2023-04-16T07:47:50.799Z,18.25
2023-04-16T07:48:53.681Z,19.00
2023-04-16T07:49:56.594Z,18.00
2023-04-16T07:50:59.469Z,18.00
2023-04-16T07:52:02.375Z,18.00
2023-04-16T07:53:05.395Z,18.00
2023-04-16T07:54:08.263Z,16.00
2023-04-16T07:55:11.290Z,16.00
2023-04-16T07:56:14.189Z,16.00
2023-04-16T07:57:17.775Z,14.00
2023-04-16T07:58:20.628Z,12.00
2023-04-16T07:59:24.545Z,13.00
2023-04-16T08:00:27.773Z,15.50
2023-04-16T08:01:30.809Z,16.00
2023-04-16T08:02:34.421Z,13.50
2023-04-16T08:03:37.928Z,10.25
2023-04-16T08:04:41.341Z,9.00
2023-04-16T08:05:44.374Z,12.00
2023-04-16T08:06:47.234Z,14.25
2023-04-16T08:07:50.105Z,15.00
2023-04-16T08:08:52.924Z,15.50
2023-04-16T08:09:56.232Z,16.25
2023-04-16T08:10:59.425Z,17.00
2023-04-16T08:12:02.690Z,17.00
2023-04-16T08:13:07.958Z,17.00
2023-04-16T08:14:10.841Z,17.00
2023-04-16T08:15:13.880Z,18.00
2023-04-16T08:16:16.833Z,17.50
2023-04-16T08:17:19.863Z,18.00
2023-04-16T08:18:22.739Z,18.00
2023-04-16T08:19:25.672Z,18.00
2023-04-16T08:20:28.686Z,17.50
2023-04-16T08:21:32.962Z,17.00
2023-04-16T08:22:35.895Z,17.00
2023-04-16T08:23:39.297Z,18.00
2023-04-16T08:24:42.408Z,18.00
2023-04-16T08:25:45.245Z,17.50
2023-04-16T08:26:48.530Z,18.00
2023-04-16T08:27:51.958Z,18.00
2023-04-16T08:28:55.065Z,18.00
2023-04-16T08:29:57.949Z,18.00
2023-04-16T08:31:00.832Z,18.00
2023-04-16T08:32:03.863Z,18.00
2023-04-16T08:33:07.182Z,18.50
2023-04-16T08:34:12.627Z,18.00
2023-04-16T08:35:15.546Z,17.00
2023-04-16T08:36:18.382Z,18.00
2023-04-16T08:37:21.253Z,18.00
2023-04-16T08:38:24.125Z,18.00
2023-04-16T08:39:27.327Z,18.50
2023-04-16T08:40:31.334Z,18.00
2023-04-16T08:41:38.110Z,18.00
2023-04-16T08:42:45.469Z,18.00
2023-04-16T08:43:52.217Z,17.00
2023-04-16T08:45:30.714Z,16.00
2023-04-16T08:46:38.072Z,17.00
2023-04-16T08:47:42.697Z,17.25
2023-04-16T08:48:50.686Z,18.00
2023-04-16T08:49:58.502Z,18.50
2023-04-16T08:51:02.983Z,17.00
2023-04-16T08:52:08.675Z,18.00
2023-04-16T08:53:15.382Z,17.50
2023-04-16T08:54:33.529Z,18.00
2023-04-16T08:55:50.295Z,18.00
2023-04-16T08:56:53.475Z,16.50
2023-04-16T08:57:59.741Z,16.00
2023-04-16T08:59:06.478Z,16.00
2023-04-16T09:00:11.082Z,16.75
2023-04-16T09:01:14.391Z,18.50
2023-04-16T09:02:17.601Z,18.50
2023-04-16T09:03:23.747Z,18.00
2023-04-16T09:04:30.573Z,18.00
2023-04-16T09:05:34.937Z,18.75
2023-04-16T09:06:38.832Z,18.00
2023-04-16T09:07:43.427Z,16.75
2023-04-16T09:08:49.612Z,16.00
2023-04-16T09:09:54.629Z,17.00
2023-04-16T09:11:00.291Z,16.00
2023-04-16T09:12:03.732Z,17.50
2023-04-16T09:13:06.800Z,16.00
2023-04-16T09:14:12.467Z,17.50
2023-04-16T09:15:15.707Z,16.00
2023-04-16T09:16:18.772Z,17.00
2023-04-16T09:17:21.830Z,16.00
2023-04-16T09:18:25.207Z,16.50
2023-04-16T09:19:28.438Z,17.50
2023-04-16T09:20:31.321Z,16.00
2023-04-16T09:21:34.332Z,14.00
2023-04-16T09:22:38.230Z,14.00
2023-04-16T09:23:41.875Z,14.75
2023-04-16T09:24:44.724Z,16.00
2023-04-16T09:25:47.799Z,13.00
2023-04-16T09:26:53.875Z,10.00
2023-04-16T09:27:56.876Z,9.00
2023-04-16T09:28:59.769Z,10.50
2023-04-16T09:30:03.740Z,9.50
2023-04-16T09:31:24.746Z,12.00
2023-04-16T09:32:29.376Z,10.00
2023-04-16T09:33:34.429Z,7.00
2023-04-16T09:35:01.953Z,7.25
2023-04-16T09:36:04.988Z,4.00
2023-04-16T09:37:32.815Z,5.00
2023-04-16T09:38:52.596Z,3.25
2023-04-16T09:39:58.427Z,3.75
2023-04-16T09:41:09.400Z,7.00
2023-04-16T09:42:13.661Z,5.00
2023-04-16T09:43:19.964Z,5.00
2023-04-16T09:44:35.805Z,4.00
2023-04-16T09:45:56.440Z,5.00
2023-04-16T09:47:08.106Z,6.00
2023-04-16T09:48:10.957Z,4.00
2023-04-16T09:49:18.027Z,3.25
2023-04-16T09:50:21.714Z,4.00
2023-04-16T09:51:24.745Z,2.00
2023-04-16T09:52:27.584Z,3.50
2023-04-16T09:53:32.834Z,3.25
2023-04-16T09:54:35.801Z,3.00
2023-04-16T09:55:38.673Z,5.00
2023-04-16T09:56:43.408Z,4.00
2023-04-16T09:57:46.413Z,4.00
2023-04-16T09:58:49.360Z,5.50
2023-04-16T10:00:11.820Z,5.00
2023-04-16T10:01:14.764Z,5.00
2023-04-16T10:02:18.655Z,7.00
2023-04-16T10:03:33.252Z,6.00
2023-04-16T10:04:49.041Z,6.00
2023-04-16T10:05:55.006Z,6.75
2023-04-16T10:07:07.582Z,8.00
2023-04-16T10:08:14.921Z,6.00
2023-04-16T10:09:17.825Z,6.00
2023-04-16T10:10:21.056Z,5.00
2023-04-16T10:11:24.763Z,5.25
2023-04-16T10:12:28.605Z,5.25
2023-04-16T10:13:32.516Z,6.50
2023-04-16T10:14:36.151Z,6.00
2023-04-16T10:15:40.077Z,5.00
2023-04-16T10:16:43.248Z,5.00
2023-04-16T10:17:47.028Z,5.25
2023-04-16T10:18:50.055Z,5.00
2023-04-16T10:19:53.430Z,5.00
2023-04-16T10:20:56.817Z,4.00
2023-04-16T10:22:00.339Z,5.00
2023-04-16T10:23:03.523Z,4.75
2023-04-16T10:24:06.893Z,7.00
2023-04-16T10:25:11.467Z,6.00
2023-04-16T10:26:14.955Z,6.75
2023-04-16T10:27:18.437Z,5.00
2023-04-16T10:28:22.409Z,5.00
2023-04-16T10:29:27.357Z,6.00
2023-04-16T10:30:30.688Z,5.00
2023-04-16T10:31:33.988Z,4.25
2023-04-16T10:32:38.224Z,5.00
2023-04-16T10:33:43.138Z,4.00
2023-04-16T10:34:46.222Z,5.00
2023-04-16T10:35:57.863Z,5.50
2023-04-16T10:37:09.813Z,5.75
2023-04-16T10:38:29.202Z,3.75
2023-04-16T10:39:32.076Z,3.50
2023-04-16T10:40:36.708Z,5.00
2023-04-16T10:41:40.258Z,5.00
2023-04-16T10:42:43.098Z,4.00
2023-04-16T10:43:47.931Z,3.00
2023-04-16T10:44:50.852Z,5.00
2023-04-16T10:45:55.424Z,3.75
2023-04-16T10:46:58.374Z,4.00
2023-04-16T10:48:05.473Z,3.25
2023-04-16T10:49:16.457Z,4.00
2023-04-16T10:50:19.386Z,4.00
2023-04-16T10:51:30.064Z,3.00
2023-04-16T10:52:32.891Z,1.00
2023-04-16T10:53:38.521Z,2.00
2023-04-16T10:54:42.465Z,2.25
2023-04-16T10:56:01.677Z,3.00
2023-04-16T10:57:07.331Z,2.00
2023-04-16T10:58:30.146Z,2.50
2023-04-16T10:59:37.481Z,2.00
2023-04-16T11:00:53.507Z,2.00
2023-04-16T11:01:58.089Z,1.00
2023-04-16T11:03:01.224Z,1.50
2023-04-16T11:04:22.511Z,2.00
2023-04-16T11:05:25.893Z,2.00
2023-04-16T11:06:29.966Z,3.00
2023-04-16T11:07:38.556Z,3.00
2023-04-16T11:08:54.658Z,3.75
2023-04-16T11:10:04.384Z,3.25
2023-04-16T11:11:07.764Z,1.00
2023-04-16T11:12:14.391Z,2.00
2023-04-16T11:13:18.209Z,3.75
2023-04-16T11:14:21.486Z,3.00
2023-04-16T11:15:25.229Z,3.00
2023-04-16T11:16:28.582Z,3.00
2023-04-16T11:17:38.022Z,2.00
2023-04-16T11:18:50.715Z,2.00
2023-04-16T11:19:54.686Z,2.00
2023-04-16T11:20:57.812Z,2.75
2023-04-16T11:22:01.359Z,2.25
2023-04-16T11:23:04.255Z,3.00
2023-04-16T11:24:07.438Z,3.00
2023-04-16T11:25:10.829Z,2.00
2023-04-16T11:26:27.679Z,2.25
2023-04-16T11:27:32.638Z,2.00
2023-04-16T11:28:37.196Z,2.25
2023-04-16T11:29:40.014Z,3.00
2023-04-16T11:30:42.972Z,2.00
2023-04-16T11:31:54.995Z,2.25
2023-04-16T11:32:58.176Z,2.00
2023-04-16T11:34:02.254Z,2.00
2023-04-16T11:35:14.249Z,2.00
2023-04-16T11:36:17.251Z,2.00
2023-04-16T11:37:35.286Z,1.00
2023-04-16T11:38:39.099Z,0.00
2023-04-16T11:39:54.433Z,2.00
2023-04-16T11:40:57.465Z,2.25
2023-04-16T11:42:00.328Z,5.00
2023-04-16T11:43:23.608Z,3.00
2023-04-16T11:44:29.210Z,3.00
2023-04-16T11:45:32.421Z,2.75
2023-04-16T11:46:42.604Z,2.00
2023-04-16T11:47:53.195Z,2.00
2023-04-16T11:48:59.586Z,2.00
2023-04-16T11:50:23.073Z,2.00
2023-04-16T11:51:26.124Z,2.50
2023-04-16T11:52:34.025Z,4.00
2023-04-16T11:53:38.139Z,3.00
2023-04-16T11:54:40.998Z,3.00
2023-04-16T11:55:47.149Z,3.00
2023-04-16T11:56:53.140Z,2.75
2023-04-16T11:57:56.060Z,2.00
2023-04-16T11:59:12.562Z,2.00
2023-04-16T12:00:16.570Z,2.00
2023-04-16T12:01:22.662Z,2.75
2023-04-16T12:02:41.627Z,1.00
2023-04-16T12:03:50.975Z,2.00
2023-04-16T12:04:54.262Z,2.00
2023-04-16T12:06:09.181Z,1.00
2023-04-16T12:07:16.173Z,2.00
2023-04-16T12:08:32.069Z,2.00
2023-04-16T12:09:38.670Z,2.50
2023-04-16T12:10:56.661Z,2.00
2023-04-16T12:11:59.585Z,2.75
2023-04-16T12:13:16.973Z,2.00
2023-04-16T12:14:20.520Z,3.00
2023-04-16T12:15:23.393Z,3.00
2023-04-16T12:16:27.512Z,2.00
2023-04-16T12:17:32.417Z,2.00
2023-04-16T12:18:35.276Z,2.00
2023-04-16T12:19:52.953Z,2.00
2023-04-16T12:20:55.990Z,2.00
2023-04-16T12:22:02.309Z,2.00
2023-04-16T12:23:05.225Z,3.00
2023-04-16T12:24:09.266Z,2.25
2023-04-16T12:25:13.608Z,1.00
2023-04-16T12:26:16.816Z,1.00
2023-04-16T12:27:19.638Z,2.00
2023-04-16T12:28:34.616Z,2.00
2023-04-16T12:29:39.958Z,1.00
2023-04-16T12:30:54.437Z,1.00
2023-04-16T12:31:57.524Z,2.00
2023-04-16T12:33:19.814Z,1.00
2023-04-16T12:34:27.742Z,1.00
2023-04-16T12:35:46.476Z,1.00
2023-04-16T12:36:50.869Z,1.75
2023-04-16T12:37:53.704Z,1.00
2023-04-16T12:38:56.687Z,1.00
2023-04-16T12:39:59.557Z,1.00
2023-04-16T12:41:03.474Z,0.00
2023-04-16T12:42:07.675Z,0.00
2023-04-16T12:43:11.780Z,0.50
2023-04-16T12:44:19.190Z,1.00
2023-04-16T12:45:22.122Z,0.00
2023-04-16T12:46:25.047Z,1.00
2023-04-16T12:47:28.041Z,0.00
2023-04-16T12:48:30.873Z,0.00
2023-04-16T12:49:34.027Z,0.00
2023-04-16T12:50:37.061Z,0.00
2023-04-16T12:51:40.563Z,0.00
2023-04-16T12:52:43.464Z,1.00
2023-04-16T12:53:46.340Z,0.75
2023-04-16T12:54:49.207Z,0.00
2023-04-16T12:55:52.228Z,0.00
2023-04-16T12:56:55.064Z,0.75
2023-04-16T12:57:57.986Z,1.00
2023-04-16T12:59:00.971Z,0.00
2023-04-16T13:00:03.897Z,0.00
2023-04-16T13:01:06.930Z,1.00
2023-04-16T13:02:09.912Z,1.00
2023-04-16T13:03:13.027Z,0.00
2023-04-16T13:04:16.245Z,0.00
2023-04-16T13:05:20.473Z,1.00
2023-04-16T13:06:23.534Z,1.00
2023-04-16T13:07:28.014Z,2.00
2023-04-16T13:08:31.125Z,1.00
2023-04-16T13:09:33.979Z,1.00
2023-04-16T13:10:37.076Z,0.00
2023-04-16T13:11:40.006Z,0.00
2023-04-16T13:12:42.821Z,1.00
2023-04-16T13:13:48.816Z,1.50
2023-04-16T13:14:51.761Z,1.00
2023-04-16T13:15:54.907Z,2.00
2023-04-16T13:16:57.765Z,1.00
2023-04-16T13:18:00.682Z,0.00
2023-04-16T13:19:03.543Z,1.00
2023-04-16T13:20:06.940Z,1.00
2023-04-16T13:21:09.848Z,1.00
2023-04-16T13:22:12.904Z,2.00
2023-04-16T13:23:15.832Z,2.00
2023-04-16T13:24:18.838Z,0.00
2023-04-16T13:25:21.858Z,1.00
2023-04-16T13:26:24.726Z,1.75
2023-04-16T13:27:27.929Z,1.00
2023-04-16T13:28:30.903Z,7.00
2023-04-16T13:29:33.797Z,5.00
2023-04-16T13:30:36.848Z,3.00
2023-04-16T13:31:39.995Z,2.00
2023-04-16T13:32:42.892Z,18.25
2023-04-16T13:33:45.825Z,19.00
2023-04-16T13:34:48.796Z,6.75
2023-04-16T13:35:51.913Z,18.50
2023-04-16T13:36:54.769Z,18.50
2023-04-16T13:37:57.663Z,19.50
2023-04-16T13:39:00.986Z,15.00
2023-04-16T13:40:03.834Z,5.50
2023-04-16T13:41:07.381Z,2.00
2023-04-16T13:42:10.339Z,3.75
2023-04-16T13:43:14.945Z,5.25
2023-04-16T13:44:17.780Z,4.00
2023-04-16T13:45:21.914Z,3.00
2023-04-16T13:46:24.965Z,2.00
2023-04-16T13:47:27.964Z,2.50
2023-04-16T13:48:30.917Z,2.00
2023-04-16T13:49:36.331Z,2.00
2023-04-16T13:50:39.312Z,0.00
2023-04-16T13:51:45.627Z,2.75
2023-04-16T13:52:48.651Z,2.00
2023-04-16T13:53:51.678Z,2.00
2023-04-16T13:54:54.508Z,2.00
2023-04-16T13:55:57.415Z,1.00
2023-04-16T13:57:00.278Z,2.00
2023-04-16T13:58:03.320Z,3.50